createdAt,value
2022-08-20T00:02:16.621Z,23.13
2022-08-20T00:04:45.197Z,23.15
2022-08-20T00:07:14.059Z,23.18
2022-08-20T00:09:43.059Z,23.22
2022-08-20T00:12:12.835Z,23.32
2022-08-20T00:14:41.296Z,23.37
2022-08-20T00:17:10.985Z,23.41
2022-08-20T00:19:39.539Z,23.39
2022-08-20T00:22:07.768Z,23.43
2022-08-20T00:24:36.050Z,23.42
2022-08-20T00:27:04.344Z,23.40
2022-08-20T00:29:32.750Z,23.43
2022-08-20T00:32:01.403Z,23.41
2022-08-20T00:34:31.235Z,23.49
2022-08-20T00:36:59.365Z,23.51
2022-08-20T00:39:27.807Z,23.52
2022-08-20T00:41:57.088Z,23.63
2022-08-20T00:44:25.279Z,23.58
2022-08-20T00:46:55.203Z,23.56
2022-08-20T00:49:26.026Z,23.59
2022-08-20T00:52:07.988Z,23.65
2022-08-20T00:54:40.205Z,23.70
2022-08-20T00:57:12.978Z,23.70
2022-08-20T00:59:43.414Z,23.66
2022-08-20T01:02:17.738Z,23.69
2022-08-20T01:04:48.722Z,23.67
2022-08-20T01:07:20.651Z,23.77
2022-08-20T01:09:58.438Z,23.81
2022-08-20T01:12:29.808Z,23.73
2022-08-20T01:15:01.443Z,23.69
2022-08-20T01:17:33.036Z,23.62
2022-08-20T01:20:07.442Z,23.41
2022-08-20T01:23:03.595Z,23.31
2022-08-20T01:25:42.579Z,23.24
2022-08-20T01:28:11.682Z,23.14
2022-08-20T01:30:40.153Z,22.97
2022-08-20T01:33:08.391Z,22.86
2022-08-20T01:35:39.636Z,22.85
2022-08-20T01:38:08.286Z,22.84
2022-08-20T01:41:02.300Z,22.77
2022-08-20T01:43:32.222Z,22.72
2022-08-20T01:46:06.199Z,22.68
2022-08-20T01:48:35.009Z,22.62
2022-08-20T01:51:08.824Z,22.50
2022-08-20T01:53:41.766Z,22.48
2022-08-20T01:56:19.304Z,22.52
2022-08-20T01:58:55.929Z,22.46
2022-08-20T02:01:28.154Z,22.50
2022-08-20T02:03:57.920Z,22.60
2022-08-20T02:06:27.392Z,22.64
2022-08-20T02:08:58.178Z,22.72
2022-08-20T02:11:29.079Z,22.77
2022-08-20T02:13:58.201Z,22.74
2022-08-20T02:16:31.295Z,22.71
2022-08-20T02:19:03.494Z,22.71
2022-08-20T02:21:33.924Z,22.68
2022-08-20T02:24:02.916Z,22.73
2022-08-20T02:26:32.927Z,22.78
2022-08-20T02:29:01.262Z,22.91
2022-08-20T02:31:34.214Z,22.88
2022-08-20T02:34:21.909Z,22.90
2022-08-20T02:36:50.851Z,22.92
2022-08-20T02:39:19.350Z,22.96
2022-08-20T02:41:50.728Z,22.96
2022-08-20T02:44:21.119Z,22.96
2022-08-20T02:46:51.858Z,22.96
2022-08-20T02:49:21.183Z,22.89
2022-08-20T02:51:49.832Z,22.83
2022-08-20T02:54:20.313Z,22.79
2022-08-20T02:56:50.000Z,22.75
2022-08-20T02:59:19.644Z,22.69
2022-08-20T03:01:59.684Z,22.67
2022-08-20T03:04:29.351Z,22.67
2022-08-20T03:06:58.245Z,22.71
2022-08-20T03:09:26.487Z,22.80
2022-08-20T03:11:56.032Z,22.80
2022-08-20T03:14:24.318Z,22.75
2022-08-20T03:16:52.616Z,22.72
2022-08-20T03:19:20.919Z,22.73
2022-08-20T03:21:49.077Z,22.76
2022-08-20T03:24:17.582Z,22.74
2022-08-20T03:26:45.942Z,22.74
2022-08-20T03:29:15.487Z,22.77
2022-08-20T03:31:43.834Z,22.86
2022-08-20T03:34:12.018Z,22.91
2022-08-20T03:36:40.236Z,23.06
2022-08-20T03:39:13.301Z,23.14
2022-08-20T03:41:41.780Z,23.36
2022-08-20T03:44:10.289Z,23.56
2022-08-20T03:46:40.179Z,23.73
2022-08-20T03:49:08.427Z,23.81
2022-08-20T03:51:57.238Z,24.06
2022-08-20T03:54:24.864Z,24.48
2022-08-20T03:57:00.581Z,25.09
2022-08-20T03:59:28.740Z,25.53
2022-08-20T04:01:58.434Z,25.60
2022-08-20T04:04:26.628Z,25.56
2022-08-20T04:06:55.933Z,25.61
2022-08-20T04:09:24.404Z,25.79
2022-08-20T04:12:00.316Z,25.08
2022-08-20T04:14:29.305Z,25.28
2022-08-20T04:16:59.656Z,25.34
2022-08-20T04:19:32.424Z,25.28
2022-08-20T04:22:02.526Z,25.39
2022-08-20T04:24:32.167Z,25.12
2022-08-20T04:27:02.850Z,25.21
2022-08-20T04:29:32.590Z,25.50
2022-08-20T04:32:06.019Z,25.97
2022-08-20T04:34:35.497Z,26.29
2022-08-20T04:37:04.221Z,26.38
2022-08-20T04:39:32.578Z,27.00
2022-08-20T04:41:59.938Z,27.29
2022-08-20T04:44:28.938Z,27.97
2022-08-20T04:46:58.063Z,28.46
2022-08-20T04:49:28.070Z,28.66
2022-08-20T04:51:56.738Z,29.60
2022-08-20T04:54:25.055Z,30.15
2022-08-20T04:56:53.279Z,30.57
2022-08-20T04:59:21.580Z,30.54
2022-08-20T05:01:50.062Z,30.87
2022-08-20T05:04:18.374Z,32.76
2022-08-20T05:06:51.059Z,32.44
2022-08-20T05:09:19.306Z,32.48
2022-08-20T05:11:47.507Z,32.15
2022-08-20T05:14:15.795Z,31.49
2022-08-20T05:16:43.976Z,31.89
2022-08-20T05:19:14.180Z,32.03
2022-08-20T05:21:42.792Z,32.52
2022-08-20T05:24:13.000Z,33.50
2022-08-20T05:26:41.604Z,32.85
2022-08-20T05:29:10.059Z,33.05
2022-08-20T05:31:39.421Z,32.28
2022-08-20T05:34:11.398Z,32.06
2022-08-20T05:36:41.661Z,32.67
2022-08-20T05:39:11.777Z,32.79
2022-08-20T05:41:41.011Z,33.76
2022-08-20T05:44:13.496Z,34.77
2022-08-20T05:46:43.814Z,34.57
2022-08-20T05:49:13.639Z,33.72
2022-08-20T05:51:41.862Z,33.42
2022-08-20T05:54:11.550Z,33.91
2022-08-20T05:56:40.096Z,35.44
2022-08-20T05:59:10.331Z,36.52
2022-08-20T06:01:40.463Z,35.45
2022-08-20T06:07:20.878Z,37.16
2022-08-20T06:09:51.351Z,36.65
2022-08-20T06:12:19.522Z,36.58
2022-08-20T06:14:48.507Z,37.35
2022-08-20T06:17:22.328Z,37.20
2022-08-20T06:19:51.410Z,37.67
2022-08-20T06:22:24.837Z,38.11
2022-08-20T06:24:57.046Z,38.01
2022-08-20T06:27:26.432Z,36.95
2022-08-20T06:29:55.394Z,37.53
2022-08-20T06:32:32.288Z,37.78
2022-08-20T06:35:02.273Z,37.13
2022-08-20T06:37:33.066Z,36.51
2022-08-20T06:40:06.767Z,37.54
2022-08-20T06:42:35.106Z,37.02
2022-08-20T06:45:05.064Z,35.97
2022-08-20T06:47:33.906Z,35.87
2022-08-20T06:50:02.226Z,36.06
2022-08-20T06:52:51.613Z,36.37
2022-08-20T06:55:20.339Z,36.78
2022-08-20T06:57:49.110Z,36.52
2022-08-20T07:00:21.223Z,37.10
2022-08-20T07:02:49.516Z,36.98
2022-08-20T07:05:17.757Z,37.58
2022-08-20T07:07:47.646Z,37.38
2022-08-20T07:10:17.145Z,37.36
2022-08-20T07:12:47.043Z,37.58
2022-08-20T07:15:16.283Z,37.31
2022-08-20T07:17:49.552Z,36.75
2022-08-20T07:20:17.771Z,37.32
2022-08-20T07:22:45.964Z,36.92
2022-08-20T07:25:16.710Z,37.28
2022-08-20T07:27:47.011Z,35.86
2022-08-20T07:30:55.966Z,36.35
2022-08-20T07:33:24.188Z,35.76
2022-08-20T07:35:52.837Z,35.70
2022-08-20T07:38:25.354Z,34.85
2022-08-20T07:40:55.683Z,34.50
2022-08-20T07:43:25.931Z,33.65
2022-08-20T07:45:56.473Z,32.70
2022-08-20T07:48:32.068Z,32.39
2022-08-20T07:51:03.555Z,32.20
2022-08-20T07:53:35.659Z,31.78
2022-08-20T07:56:06.895Z,31.54
2022-08-20T07:58:37.724Z,31.54
2022-08-20T08:01:06.860Z,31.07
2022-08-20T08:03:48.910Z,31.00
2022-08-20T08:06:29.848Z,30.74
2022-08-20T08:09:03.237Z,30.47
2022-08-20T08:11:34.413Z,30.65
2022-08-20T08:14:06.967Z,30.72
2022-08-20T08:16:35.725Z,30.53
2022-08-20T08:19:07.694Z,30.81
2022-08-20T08:21:36.150Z,31.02
2022-08-20T08:24:04.791Z,31.03
2022-08-20T08:26:32.940Z,31.05
2022-08-20T08:29:01.135Z,31.06
2022-08-20T08:31:30.760Z,30.96
2022-08-20T08:33:58.870Z,31.05
2022-08-20T08:36:27.509Z,31.17
2022-08-20T08:38:56.680Z,30.96
2022-08-20T08:41:31.380Z,31.05
2022-08-20T08:44:06.121Z,31.10
2022-08-20T08:46:41.836Z,30.71
2022-08-20T08:49:14.038Z,30.92
2022-08-20T08:51:46.407Z,31.03
2022-08-20T08:54:17.828Z,30.73
2022-08-20T08:56:49.889Z,30.82
2022-08-20T08:59:20.346Z,30.98
2022-08-20T09:01:54.416Z,31.02
2022-08-20T09:04:31.854Z,30.67
2022-08-20T09:07:02.967Z,30.47
2022-08-20T09:09:34.104Z,30.42
2022-08-20T09:12:06.307Z,30.37
2022-08-20T09:14:35.000Z,30.43
2022-08-20T09:17:05.113Z,30.50
2022-08-20T09:19:33.313Z,30.33
2022-08-20T09:22:09.204Z,29.85
2022-08-20T09:24:37.875Z,30.12
2022-08-20T09:27:06.425Z,30.33
2022-08-20T09:29:34.656Z,30.32
2022-08-20T09:32:11.111Z,29.99
2022-08-20T09:34:39.421Z,29.99
2022-08-20T09:37:08.040Z,30.10
2022-08-20T09:39:36.573Z,29.78
2022-08-20T09:42:09.503Z,29.28
2022-08-20T09:44:37.962Z,29.45
2022-08-20T09:47:08.106Z,29.77
2022-08-20T09:49:37.426Z,29.77
2022-08-20T09:52:08.823Z,29.76
2022-08-20T09:54:38.790Z,29.85
2022-08-20T09:57:13.148Z,29.95
2022-08-20T09:59:41.662Z,29.77
2022-08-20T10:02:11.321Z,30.05
2022-08-20T10:04:39.558Z,29.89
2022-08-20T10:07:10.268Z,29.58
2022-08-20T10:09:39.331Z,29.81
2022-08-20T10:12:08.920Z,29.98
2022-08-20T10:14:37.247Z,30.10
2022-08-20T10:17:05.563Z,29.91
2022-08-20T10:19:35.135Z,30.06
2022-08-20T10:22:03.445Z,29.70
2022-08-20T10:24:31.992Z,29.98
2022-08-20T10:27:01.391Z,29.95
2022-08-20T10:29:31.059Z,29.97
2022-08-20T10:32:09.446Z,29.88
2022-08-20T10:34:39.293Z,29.63
2022-08-20T10:37:07.618Z,29.75
2022-08-20T10:39:36.283Z,29.78
2022-08-20T10:42:04.992Z,29.94
2022-08-20T10:44:33.134Z,29.67
2022-08-20T10:47:15.311Z,29.51
2022-08-20T10:49:44.917Z,29.69
2022-08-20T10:52:13.152Z,29.74
2022-08-20T10:54:42.485Z,29.66
2022-08-20T10:57:14.718Z,29.58
2022-08-20T10:59:44.671Z,29.49
2022-08-20T11:02:13.377Z,29.60
2022-08-20T11:04:42.246Z,29.68
2022-08-20T11:07:20.652Z,29.64
2022-08-20T11:09:50.343Z,29.74
2022-08-20T11:12:20.945Z,29.65
2022-08-20T11:14:50.352Z,29.52
2022-08-20T11:17:22.132Z,29.54
2022-08-20T11:19:50.728Z,29.41
2022-08-20T11:22:20.314Z,29.26
2022-08-20T11:24:49.065Z,29.29
2022-08-20T11:27:25.044Z,29.42
2022-08-20T11:29:54.202Z,29.20
2022-08-20T11:32:23.198Z,29.36
2022-08-20T11:34:52.498Z,29.39
2022-08-20T11:37:25.421Z,29.26
2022-08-20T11:39:54.212Z,29.29
2022-08-20T11:42:22.371Z,29.23
2022-08-20T11:44:50.530Z,29.25
2022-08-20T11:47:23.634Z,29.15
2022-08-20T11:49:59.723Z,29.22
2022-08-20T11:52:30.353Z,29.07
2022-08-20T11:54:59.337Z,29.10
2022-08-20T11:57:30.475Z,29.10
2022-08-20T12:00:01.130Z,29.06
2022-08-20T12:02:29.992Z,29.03
2022-08-20T12:04:58.469Z,29.13
2022-08-20T12:07:28.546Z,29.17
2022-08-20T12:09:56.989Z,29.04
2022-08-20T12:12:25.559Z,28.99
2022-08-20T12:14:54.705Z,29.03
2022-08-20T12:17:26.843Z,28.49
2022-08-20T12:19:59.361Z,28.61
2022-08-20T12:22:29.442Z,28.70
2022-08-20T12:24:58.041Z,28.89
2022-08-20T12:27:28.020Z,28.81
2022-08-20T12:29:58.739Z,28.64
2022-08-20T12:32:30.085Z,28.77
2022-08-20T12:34:59.486Z,28.74
2022-08-20T12:37:31.619Z,28.67
2022-08-20T12:40:01.930Z,28.75
2022-08-20T12:42:31.562Z,28.85
2022-08-20T12:45:00.267Z,28.80
2022-08-20T12:47:30.293Z,28.84
2022-08-20T12:50:01.547Z,28.87
2022-08-20T12:52:32.333Z,28.84
2022-08-20T12:55:00.921Z,28.53
2022-08-20T12:57:32.211Z,28.69
2022-08-20T13:00:03.579Z,28.81
2022-08-20T13:02:32.046Z,28.71
2022-08-20T13:05:04.547Z,28.69
2022-08-20T13:07:35.770Z,28.61
2022-08-20T13:10:05.418Z,28.62
2022-08-20T13:12:33.719Z,28.65
2022-08-20T13:15:01.890Z,28.55
2022-08-20T13:17:38.643Z,28.51
2022-08-20T13:20:10.733Z,28.56
2022-08-20T13:22:40.331Z,28.37
2022-08-20T13:25:09.866Z,28.34
2022-08-20T13:27:38.928Z,28.46
2022-08-20T13:30:09.162Z,28.43
2022-08-20T13:32:37.276Z,28.36
2022-08-20T13:35:06.080Z,28.35
2022-08-20T13:37:34.909Z,28.39
2022-08-20T13:40:06.158Z,28.41
2022-08-20T13:42:34.769Z,28.28
2022-08-20T13:45:03.932Z,28.39
2022-08-20T13:47:34.352Z,28.41
2022-08-20T13:50:06.769Z,28.51
2022-08-20T13:52:35.623Z,28.49
2022-08-20T13:55:07.395Z,28.32
2022-08-20T13:57:36.793Z,28.39
2022-08-20T14:00:08.583Z,28.14
2022-08-20T14:02:37.086Z,27.70
2022-08-20T14:05:05.463Z,27.59
2022-08-20T14:07:33.653Z,27.58
2022-08-20T14:10:04.819Z,27.70
2022-08-20T14:12:34.392Z,27.54
2022-08-20T14:15:02.725Z,27.57
2022-08-20T14:17:34.008Z,27.79
2022-08-20T14:20:06.990Z,27.86
2022-08-20T14:22:36.859Z,27.89
2022-08-20T14:25:05.869Z,27.88
2022-08-20T14:27:36.404Z,28.01
2022-08-20T14:30:08.150Z,27.81
2022-08-20T14:32:36.809Z,27.85
2022-08-20T14:35:05.536Z,27.84
2022-08-20T14:37:38.007Z,27.81
2022-08-20T14:40:09.592Z,27.72
2022-08-20T14:42:40.096Z,27.76
2022-08-20T14:45:10.400Z,27.73
2022-08-20T14:47:40.669Z,27.74
2022-08-20T14:50:13.189Z,27.82
2022-08-20T14:52:41.956Z,27.87
2022-08-20T14:55:13.264Z,27.87
2022-08-20T14:57:43.839Z,27.89
2022-08-20T15:00:17.898Z,27.72
2022-08-20T15:02:47.532Z,27.69
2022-08-20T15:05:16.376Z,27.68
2022-08-20T15:07:49.108Z,27.73
2022-08-20T15:10:22.051Z,27.61
2022-08-20T15:12:52.418Z,27.41
2022-08-20T15:15:21.422Z,27.41
2022-08-20T15:17:51.588Z,27.45
2022-08-20T15:20:21.929Z,27.46
2022-08-20T15:22:51.548Z,27.48
2022-08-20T15:25:22.125Z,27.50
2022-08-20T15:27:52.334Z,27.17
2022-08-20T15:30:23.537Z,27.01
2022-08-20T15:32:54.975Z,27.09
2022-08-20T15:35:23.895Z,26.97
2022-08-20T15:37:54.653Z,26.96
2022-08-20T15:40:33.798Z,26.97
2022-08-20T15:43:04.903Z,26.91
2022-08-20T15:45:36.434Z,26.79
2022-08-20T15:48:11.468Z,26.74
2022-08-20T15:51:21.568Z,26.67
2022-08-20T15:53:58.276Z,26.54
2022-08-20T15:56:44.871Z,26.49
2022-08-20T15:59:30.738Z,26.53
2022-08-20T16:02:08.913Z,26.48
2022-08-20T16:05:04.722Z,26.39
2022-08-20T16:07:42.193Z,26.22
2022-08-20T16:10:17.301Z,26.33
2022-08-20T16:12:50.998Z,26.33
2022-08-20T16:15:25.934Z,26.29
2022-08-20T16:18:02.186Z,26.11
2022-08-20T16:20:36.625Z,25.89
2022-08-20T16:23:05.126Z,25.93
2022-08-20T16:25:45.145Z,25.99
2022-08-20T16:28:23.815Z,26.10
2022-08-20T16:30:59.661Z,26.09
2022-08-20T16:33:32.987Z,26.05
2022-08-20T16:36:10.464Z,26.07
2022-08-20T16:38:44.353Z,26.00
2022-08-20T16:41:17.246Z,25.94
2022-08-20T16:43:53.937Z,25.70
2022-08-20T16:46:27.437Z,25.53
2022-08-20T16:48:58.513Z,25.68
2022-08-20T16:51:42.470Z,25.73
2022-08-20T16:54:11.748Z,25.71
2022-08-20T16:56:42.541Z,25.61
2022-08-20T16:59:18.376Z,25.50
2022-08-20T17:02:07.282Z,25.62
2022-08-20T17:04:58.661Z,25.44
2022-08-20T17:07:33.319Z,25.24
2022-08-20T17:10:18.163Z,25.08
2022-08-20T17:12:47.163Z,25.00
2022-08-20T17:15:27.849Z,25.02
2022-08-20T17:17:57.721Z,25.20
2022-08-20T17:20:29.110Z,25.08
2022-08-20T17:23:14.840Z,24.85
2022-08-20T17:25:43.184Z,24.87
2022-08-20T17:28:16.816Z,24.88
2022-08-20T17:30:45.774Z,24.90
2022-08-20T17:33:28.324Z,24.86
2022-08-20T17:35:59.587Z,24.93
2022-08-20T17:38:34.989Z,24.77
2022-08-20T17:41:11.889Z,24.68
2022-08-20T17:43:45.661Z,24.87
2022-08-20T17:46:17.579Z,24.71
2022-08-20T17:48:49.053Z,24.78
2022-08-20T17:51:19.647Z,24.62
2022-08-20T17:53:52.188Z,24.41
2022-08-20T17:56:23.870Z,24.36
2022-08-20T17:58:57.261Z,24.30
2022-08-20T18:01:27.947Z,24.45
2022-08-20T18:03:57.736Z,24.54
2022-08-20T18:06:33.912Z,24.36
2022-08-20T18:09:05.486Z,24.37
2022-08-20T18:11:39.613Z,24.51
2022-08-20T18:14:34.319Z,24.58
2022-08-20T18:17:16.818Z,24.58
2022-08-20T18:20:14.283Z,24.41
2022-08-20T18:22:49.678Z,24.41
2022-08-20T18:25:29.228Z,24.52
2022-08-20T18:28:06.202Z,24.55
2022-08-20T18:30:34.856Z,24.55
2022-08-20T18:33:07.567Z,24.51
2022-08-20T18:35:45.758Z,24.39
2022-08-20T18:38:28.432Z,24.44
2022-08-20T18:41:11.818Z,24.48
2022-08-20T18:43:40.820Z,24.65
2022-08-20T18:46:14.921Z,24.61
2022-08-20T18:48:59.370Z,24.44
2022-08-20T18:51:36.906Z,24.27
2022-08-20T18:54:05.999Z,24.34
2022-08-20T18:56:38.594Z,24.50
2022-08-20T18:59:13.072Z,24.49
2022-08-20T19:02:35.915Z,24.58
2022-08-20T19:05:07.118Z,24.56
2022-08-20T19:07:48.383Z,24.34
2022-08-20T19:10:48.605Z,24.43
2022-08-20T19:13:49.666Z,24.40
2022-08-20T19:16:21.263Z,24.38
2022-08-20T19:18:52.817Z,24.38
2022-08-20T19:21:26.435Z,24.42
2022-08-20T19:23:59.176Z,24.54
2022-08-20T19:26:31.317Z,24.59
2022-08-20T19:29:01.940Z,24.49
2022-08-20T19:31:34.430Z,24.41
2022-08-20T19:34:19.900Z,24.49
2022-08-20T19:36:55.742Z,24.31
2022-08-20T19:39:26.703Z,24.41
2022-08-20T19:41:59.045Z,24.45
2022-08-20T19:44:33.854Z,24.37
2022-08-20T19:47:03.445Z,24.44
2022-08-20T19:49:42.850Z,24.38
2022-08-20T19:52:27.766Z,24.46
2022-08-20T19:55:03.368Z,24.32
2022-08-20T19:57:32.743Z,24.21
2022-08-20T20:00:04.683Z,24.18
2022-08-20T20:02:36.638Z,24.24
2022-08-20T20:05:07.565Z,24.12
2022-08-20T20:07:39.895Z,23.97
2022-08-20T20:10:12.353Z,23.99
2022-08-20T20:12:40.774Z,23.83
2022-08-20T20:15:09.507Z,23.85
2022-08-20T20:17:38.018Z,23.88
2022-08-20T20:20:20.673Z,23.84
2022-08-20T20:22:52.905Z,23.73
2022-08-20T20:25:25.295Z,23.74
2022-08-20T20:27:55.617Z,23.70
2022-08-20T20:30:27.776Z,23.68
2022-08-20T20:32:58.269Z,23.68
2022-08-20T20:35:31.174Z,23.63
2022-08-20T20:38:03.524Z,23.78
2022-08-20T20:40:43.768Z,23.81
2022-08-20T20:43:23.865Z,23.86
2022-08-20T20:46:00.981Z,23.79
2022-08-20T20:48:32.841Z,23.88
2022-08-20T20:51:13.466Z,23.72
2022-08-20T20:53:53.225Z,23.82
2022-08-20T20:56:36.326Z,23.88
2022-08-20T20:59:07.445Z,23.79
2022-08-20T21:01:41.422Z,23.60
2022-08-20T21:04:21.336Z,23.58
2022-08-20T21:06:50.194Z,23.58
2022-08-20T21:09:19.048Z,23.60
2022-08-20T21:11:49.830Z,23.61
2022-08-20T21:14:18.790Z,23.66
2022-08-20T21:16:47.366Z,23.53
2022-08-20T21:19:19.926Z,23.39
2022-08-20T21:21:48.228Z,23.42
2022-08-20T21:24:16.495Z,23.40
2022-08-20T21:26:45.386Z,23.46
2022-08-20T21:29:17.907Z,23.57
2022-08-20T21:31:47.033Z,23.53
2022-08-20T21:34:17.477Z,23.51
2022-08-20T21:36:46.570Z,23.38
2022-08-20T21:39:14.848Z,23.42
2022-08-20T21:41:43.817Z,23.39
2022-08-20T21:44:17.751Z,23.38
2022-08-20T21:46:49.560Z,23.39
2022-08-20T21:49:19.606Z,23.37
2022-08-20T21:51:48.192Z,23.31
2022-08-20T21:54:16.487Z,23.33
2022-08-20T21:56:46.233Z,23.23
2022-08-20T21:59:17.754Z,23.22
2022-08-20T22:01:45.897Z,23.19
2022-08-20T22:04:14.231Z,23.14
2022-08-20T22:06:42.845Z,23.12
2022-08-20T22:09:11.331Z,23.14
2022-08-20T22:11:39.544Z,23.13
2022-08-20T22:14:10.056Z,23.11
2022-08-20T22:16:40.683Z,23.12
2022-08-20T22:19:16.258Z,23.12
2022-08-20T22:21:44.962Z,23.13
2022-08-20T22:24:15.059Z,23.16
2022-08-20T22:26:44.654Z,23.13
2022-08-20T22:29:13.563Z,23.09
2022-08-20T22:31:44.359Z,23.06
2022-08-20T22:34:14.229Z,23.04
2022-08-20T22:36:42.798Z,23.06
2022-08-20T22:39:11.441Z,23.01
2022-08-20T22:41:39.888Z,23.03
2022-08-20T22:44:08.082Z,23.02
2022-08-20T22:46:42.459Z,22.98
2022-08-20T22:49:18.830Z,22.96
2022-08-20T22:51:47.149Z,22.90
2022-08-20T22:54:21.186Z,23.05
2022-08-20T22:56:49.347Z,23.04
2022-08-20T22:59:20.206Z,22.94
2022-08-20T23:01:49.260Z,22.92
2022-08-20T23:04:25.549Z,22.92
2022-08-20T23:06:55.349Z,22.93
2022-08-20T23:09:23.888Z,22.93
2022-08-20T23:11:53.041Z,22.91
2022-08-20T23:14:21.790Z,22.85
2022-08-20T23:16:54.884Z,22.85
2022-08-20T23:19:27.779Z,22.90
2022-08-20T23:21:56.187Z,22.86
2022-08-20T23:24:24.344Z,22.79
2022-08-20T23:26:53.445Z,22.80
2022-08-20T23:29:25.812Z,22.82
2022-08-20T23:31:55.544Z,22.85
2022-08-20T23:34:23.737Z,22.79
2022-08-20T23:36:54.500Z,22.78
2022-08-20T23:39:23.312Z,22.79
2022-08-20T23:41:51.829Z,22.81
2022-08-20T23:44:26.291Z,22.81
2022-08-20T23:46:56.270Z,22.79
2022-08-20T23:49:24.468Z,22.79
2022-08-20T23:51:54.129Z,22.75
2022-08-20T23:54:22.646Z,22.69
2022-08-20T23:56:50.910Z,22.64
2022-08-20T23:59:19.636Z,22.64
